sensor_id;sensor_type;location;lat;lon;timestamp;P1;durP1;ratioP1;P2;durP2;ratioP2
13651;SDS011;6899;51.546;6.912;2022-10-17T00:01:39;15.85;;;11.73;;
13651;SDS011;6899;51.546;6.912;2022-10-17T00:04:05;18.70;;;13.32;;
13651;SDS011;6899;51.546;6.912;2022-10-17T00:06:32;12.88;;;10.63;;
13651;SDS011;6899;51.546;6.912;2022-10-17T00:09:00;15.18;;;11.75;;
13651;SDS011;6899;51.546;6.912;2022-10-17T00:11:27;15.77;;;11.63;;
13651;SDS011;6899;51.546;6.912;2022-10-17T00:13:54;15.13;;;10.98;;
13651;SDS011;6899;51.546;6.912;2022-10-17T00:16:23;14.85;;;11.30;;
13651;SDS011;6899;51.546;6.912;2022-10-17T00:18:52;12.43;;;10.18;;
13651;SDS011;6899;51.546;6.912;2022-10-17T00:21:19;14.73;;;10.75;;
13651;SDS011;6899;51.546;6.912;2022-10-17T00:23:46;13.75;;;10.40;;
13651;SDS011;6899;51.546;6.912;2022-10-17T00:26:14;15.98;;;12.35;;
13651;SDS011;6899;51.546;6.912;2022-10-17T00:28:44;13.85;;;10.90;;
13651;SDS011;6899;51.546;6.912;2022-10-17T00:31:12;15.40;;;10.43;;
13651;SDS011;6899;51.546;6.912;2022-10-17T00:33:40;13.50;;;9.88;;
13651;SDS011;6899;51.546;6.912;2022-10-17T00:36:10;13.70;;;10.20;;
13651;SDS011;6899;51.546;6.912;2022-10-17T00:38:39;19.10;;;12.13;;
13651;SDS011;6899;51.546;6.912;2022-10-17T00:41:08;13.00;;;9.93;;
13651;SDS011;6899;51.546;6.912;2022-10-17T00:43:49;18.27;;;11.93;;
13651;SDS011;6899;51.546;6.912;2022-10-17T00:46:21;16.17;;;10.85;;
13651;SDS011;6899;51.546;6.912;2022-10-17T00:48:51;18.38;;;12.50;;
13651;SDS011;6899;51.546;6.912;2022-10-17T00:51:22;25.15;;;16.10;;
13651;SDS011;6899;51.546;6.912;2022-10-17T00:53:56;16.02;;;12.43;;
13651;SDS011;6899;51.546;6.912;2022-10-17T00:56:23;16.45;;;11.25;;
13651;SDS011;6899;51.546;6.912;2022-10-17T00:58:59;15.93;;;11.60;;
13651;SDS011;6899;51.546;6.912;2022-10-17T01:01:27;16.90;;;12.93;;
13651;SDS011;6899;51.546;6.912;2022-10-17T01:03:55;16.10;;;11.98;;
13651;SDS011;6899;51.546;6.912;2022-10-17T01:06:22;18.65;;;14.20;;
13651;SDS011;6899;51.546;6.912;2022-10-17T01:08:49;17.25;;;11.98;;
13651;SDS011;6899;51.546;6.912;2022-10-17T01:11:21;17.05;;;12.40;;
13651;SDS011;6899;51.546;6.912;2022-10-17T01:13:59;14.77;;;11.75;;
13651;SDS011;6899;51.546;6.912;2022-10-17T01:16:34;13.57;;;10.88;;
13651;SDS011;6899;51.546;6.912;2022-10-17T01:19:14;16.92;;;11.43;;
13651;SDS011;6899;51.546;6.912;2022-10-17T01:22:08;17.25;;;12.10;;
13651;SDS011;6899;51.546;6.912;2022-10-17T01:24:48;16.42;;;11.27;;
13651;SDS011;6899;51.546;6.912;2022-10-17T01:27:48;13.80;;;10.77;;
13651;SDS011;6899;51.546;6.912;2022-10-17T01:33:24;16.70;;;12.73;;
13651;SDS011;6899;51.546;6.912;2022-10-17T01:36:09;15.55;;;11.70;;
13651;SDS011;6899;51.546;6.912;2022-10-17T01:38:43;16.65;;;12.43;;
13651;SDS011;6899;51.546;6.912;2022-10-17T01:41:15;17.25;;;11.43;;
13651;SDS011;6899;51.546;6.912;2022-10-17T01:43:51;15.25;;;12.75;;
13651;SDS011;6899;51.546;6.912;2022-10-17T01:46:25;20.33;;;13.00;;
13651;SDS011;6899;51.546;6.912;2022-10-17T01:48:57;17.08;;;11.80;;
13651;SDS011;6899;51.546;6.912;2022-10-17T01:51:28;20.15;;;14.00;;
13651;SDS011;6899;51.546;6.912;2022-10-17T01:53:59;18.20;;;13.35;;
13651;SDS011;6899;51.546;6.912;2022-10-17T01:56:29;17.38;;;12.82;;
13651;SDS011;6899;51.546;6.912;2022-10-17T01:58:59;14.80;;;11.60;;
13651;SDS011;6899;51.546;6.912;2022-10-17T02:01:31;17.63;;;13.13;;
13651;SDS011;6899;51.546;6.912;2022-10-17T02:04:01;13.80;;;10.52;;
13651;SDS011;6899;51.546;6.912;2022-10-17T02:06:30;14.45;;;11.65;;
13651;SDS011;6899;51.546;6.912;2022-10-17T02:09:00;22.63;;;15.77;;
13651;SDS011;6899;51.546;6.912;2022-10-17T02:11:40;25.42;;;16.10;;
13651;SDS011;6899;51.546;6.912;2022-10-17T02:14:13;17.58;;;13.52;;
13651;SDS011;6899;51.546;6.912;2022-10-17T02:16:50;22.50;;;15.32;;
13651;SDS011;6899;51.546;6.912;2022-10-17T02:19:33;20.30;;;14.75;;
13651;SDS011;6899;51.546;6.912;2022-10-17T02:22:17;22.65;;;15.02;;
13651;SDS011;6899;51.546;6.912;2022-10-17T02:24:53;24.30;;;16.35;;
13651;SDS011;6899;51.546;6.912;2022-10-17T02:27:29;22.40;;;14.27;;
13651;SDS011;6899;51.546;6.912;2022-10-17T02:30:05;20.08;;;15.82;;
13651;SDS011;6899;51.546;6.912;2022-10-17T02:32:39;26.33;;;17.65;;
13651;SDS011;6899;51.546;6.912;2022-10-17T02:35:10;22.17;;;15.23;;
13651;SDS011;6899;51.546;6.912;2022-10-17T02:37:40;20.85;;;14.55;;
13651;SDS011;6899;51.546;6.912;2022-10-17T02:40:09;17.35;;;13.13;;
13651;SDS011;6899;51.546;6.912;2022-10-17T02:42:39;19.52;;;13.93;;
13651;SDS011;6899;51.546;6.912;2022-10-17T02:45:10;26.30;;;15.88;;
13651;SDS011;6899;51.546;6.912;2022-10-17T02:47:42;28.10;;;17.67;;
13651;SDS011;6899;51.546;6.912;2022-10-17T02:50:15;21.30;;;15.57;;
13651;SDS011;6899;51.546;6.912;2022-10-17T02:52:45;19.02;;;13.07;;
13651;SDS011;6899;51.546;6.912;2022-10-17T02:55:18;20.63;;;14.35;;
13651;SDS011;6899;51.546;6.912;2022-10-17T02:57:49;23.90;;;15.38;;
13651;SDS011;6899;51.546;6.912;2022-10-17T03:00:19;19.83;;;15.05;;
13651;SDS011;6899;51.546;6.912;2022-10-17T03:02:49;21.33;;;15.40;;
13651;SDS011;6899;51.546;6.912;2022-10-17T03:05:18;22.98;;;14.85;;
13651;SDS011;6899;51.546;6.912;2022-10-17T03:07:48;20.13;;;14.25;;
13651;SDS011;6899;51.546;6.912;2022-10-17T03:10:15;20.98;;;16.05;;
13651;SDS011;6899;51.546;6.912;2022-10-17T03:12:42;19.60;;;13.68;;
13651;SDS011;6899;51.546;6.912;2022-10-17T03:15:09;25.35;;;15.85;;
13651;SDS011;6899;51.546;6.912;2022-10-17T03:17:37;25.50;;;16.08;;
13651;SDS011;6899;51.546;6.912;2022-10-17T03:20:06;23.58;;;16.48;;
13651;SDS011;6899;51.546;6.912;2022-10-17T03:22:33;23.88;;;16.30;;
13651;SDS011;6899;51.546;6.912;2022-10-17T03:25:00;20.55;;;15.20;;
13651;SDS011;6899;51.546;6.912;2022-10-17T03:27:26;22.77;;;16.40;;
13651;SDS011;6899;51.546;6.912;2022-10-17T03:29:53;24.10;;;16.02;;
13651;SDS011;6899;51.546;6.912;2022-10-17T03:32:20;27.40;;;18.38;;
13651;SDS011;6899;51.546;6.912;2022-10-17T03:34:47;21.98;;;15.95;;
13651;SDS011;6899;51.546;6.912;2022-10-17T03:37:16;22.08;;;16.90;;
13651;SDS011;6899;51.546;6.912;2022-10-17T03:39:42;24.27;;;16.67;;
13651;SDS011;6899;51.546;6.912;2022-10-17T03:42:09;29.23;;;16.48;;
13651;SDS011;6899;51.546;6.912;2022-10-17T03:44:42;29.38;;;18.55;;
13651;SDS011;6899;51.546;6.912;2022-10-17T03:47:11;28.15;;;18.55;;
13651;SDS011;6899;51.546;6.912;2022-10-17T03:49:38;29.27;;;18.65;;
13651;SDS011;6899;51.546;6.912;2022-10-17T03:52:05;28.20;;;19.83;;
13651;SDS011;6899;51.546;6.912;2022-10-17T03:54:37;26.77;;;19.05;;
13651;SDS011;6899;51.546;6.912;2022-10-17T03:57:04;24.60;;;18.42;;
13651;SDS011;6899;51.546;6.912;2022-10-17T03:59:32;30.17;;;19.92;;
13651;SDS011;6899;51.546;6.912;2022-10-17T04:01:58;29.05;;;20.15;;
13651;SDS011;6899;51.546;6.912;2022-10-17T04:04:25;25.30;;;18.65;;
13651;SDS011;6899;51.546;6.912;2022-10-17T04:06:52;26.70;;;17.92;;
13651;SDS011;6899;51.546;6.912;2022-10-17T04:09:19;26.42;;;18.27;;
13651;SDS011;6899;51.546;6.912;2022-10-17T04:11:47;26.75;;;17.20;;
13651;SDS011;6899;51.546;6.912;2022-10-17T04:14:14;23.60;;;16.63;;
13651;SDS011;6899;51.546;6.912;2022-10-17T04:16:41;24.92;;;16.83;;
13651;SDS011;6899;51.546;6.912;2022-10-17T04:19:09;27.92;;;16.85;;
13651;SDS011;6899;51.546;6.912;2022-10-17T04:21:38;24.58;;;16.95;;
13651;SDS011;6899;51.546;6.912;2022-10-17T04:24:05;25.83;;;17.02;;
13651;SDS011;6899;51.546;6.912;2022-10-17T04:26:32;23.65;;;17.17;;
13651;SDS011;6899;51.546;6.912;2022-10-17T04:29:00;26.63;;;17.48;;
13651;SDS011;6899;51.546;6.912;2022-10-17T04:31:27;27.52;;;17.75;;
13651;SDS011;6899;51.546;6.912;2022-10-17T04:33:54;24.60;;;16.80;;
13651;SDS011;6899;51.546;6.912;2022-10-17T04:36:21;23.48;;;16.92;;
13651;SDS011;6899;51.546;6.912;2022-10-17T04:38:48;25.00;;;17.15;;
13651;SDS011;6899;51.546;6.912;2022-10-17T04:41:15;22.92;;;16.25;;
13651;SDS011;6899;51.546;6.912;2022-10-17T04:43:43;25.52;;;16.58;;
13651;SDS011;6899;51.546;6.912;2022-10-17T04:46:12;27.10;;;16.80;;
13651;SDS011;6899;51.546;6.912;2022-10-17T04:48:40;21.95;;;16.25;;
13651;SDS011;6899;51.546;6.912;2022-10-17T04:51:09;24.92;;;17.92;;
13651;SDS011;6899;51.546;6.912;2022-10-17T04:53:38;24.48;;;16.70;;
13651;SDS011;6899;51.546;6.912;2022-10-17T04:56:09;22.67;;;16.67;;
13651;SDS011;6899;51.546;6.912;2022-10-17T04:58:37;26.27;;;15.88;;
13651;SDS011;6899;51.546;6.912;2022-10-17T05:01:05;24.85;;;16.60;;
13651;SDS011;6899;51.546;6.912;2022-10-17T05:03:34;21.45;;;14.98;;
13651;SDS011;6899;51.546;6.912;2022-10-17T05:06:14;23.08;;;16.17;;
13651;SDS011;6899;51.546;6.912;2022-10-17T05:08:42;21.85;;;15.63;;
13651;SDS011;6899;51.546;6.912;2022-10-17T05:11:16;23.05;;;15.68;;
13651;SDS011;6899;51.546;6.912;2022-10-17T05:13:45;26.13;;;16.15;;
13651;SDS011;6899;51.546;6.912;2022-10-17T05:16:15;23.55;;;15.25;;
13651;SDS011;6899;51.546;6.912;2022-10-17T05:18:46;22.73;;;15.60;;
13651;SDS011;6899;51.546;6.912;2022-10-17T05:21:13;17.75;;;14.30;;
13651;SDS011;6899;51.546;6.912;2022-10-17T05:23:40;22.15;;;14.73;;
13651;SDS011;6899;51.546;6.912;2022-10-17T05:26:10;17.70;;;14.90;;
13651;SDS011;6899;51.546;6.912;2022-10-17T05:28:37;22.63;;;15.00;;
13651;SDS011;6899;51.546;6.912;2022-10-17T05:31:05;18.08;;;14.68;;
13651;SDS011;6899;51.546;6.912;2022-10-17T05:33:33;19.25;;;14.25;;
13651;SDS011;6899;51.546;6.912;2022-10-17T05:36:02;19.33;;;14.80;;
13651;SDS011;6899;51.546;6.912;2022-10-17T05:38:30;18.80;;;13.95;;
13651;SDS011;6899;51.546;6.912;2022-10-17T05:40:57;15.27;;;12.70;;
13651;SDS011;6899;51.546;6.912;2022-10-17T05:43:25;16.92;;;12.63;;
13651;SDS011;6899;51.546;6.912;2022-10-17T05:45:53;14.90;;;12.75;;
13651;SDS011;6899;51.546;6.912;2022-10-17T05:48:20;14.82;;;12.73;;
13651;SDS011;6899;51.546;6.912;2022-10-17T05:50:48;16.83;;;12.85;;
13651;SDS011;6899;51.546;6.912;2022-10-17T05:53:16;18.58;;;12.20;;
13651;SDS011;6899;51.546;6.912;2022-10-17T05:55:43;15.00;;;11.90;;
13651;SDS011;6899;51.546;6.912;2022-10-17T05:58:10;17.88;;;11.93;;
13651;SDS011;6899;51.546;6.912;2022-10-17T06:00:37;17.00;;;11.63;;
13651;SDS011;6899;51.546;6.912;2022-10-17T06:03:04;12.32;;;11.07;;
13651;SDS011;6899;51.546;6.912;2022-10-17T06:05:31;16.70;;;11.45;;
13651;SDS011;6899;51.546;6.912;2022-10-17T06:08:00;13.52;;;9.98;;
13651;SDS011;6899;51.546;6.912;2022-10-17T06:10:28;11.95;;;10.63;;
13651;SDS011;6899;51.546;6.912;2022-10-17T06:12:55;13.25;;;11.02;;
13651;SDS011;6899;51.546;6.912;2022-10-17T06:15:22;11.88;;;9.30;;
13651;SDS011;6899;51.546;6.912;2022-10-17T06:17:49;14.15;;;10.88;;
13651;SDS011;6899;51.546;6.912;2022-10-17T06:20:16;13.88;;;10.23;;
13651;SDS011;6899;51.546;6.912;2022-10-17T06:22:43;13.00;;;9.85;;
13651;SDS011;6899;51.546;6.912;2022-10-17T06:25:09;12.07;;;10.20;;
13651;SDS011;6899;51.546;6.912;2022-10-17T06:27:38;13.35;;;9.77;;
13651;SDS011;6899;51.546;6.912;2022-10-17T06:30:05;12.60;;;9.88;;
13651;SDS011;6899;51.546;6.912;2022-10-17T06:32:33;15.77;;;9.90;;
13651;SDS011;6899;51.546;6.912;2022-10-17T06:34:59;12.27;;;9.25;;
13651;SDS011;6899;51.546;6.912;2022-10-17T06:37:29;12.75;;;10.27;;
13651;SDS011;6899;51.546;6.912;2022-10-17T06:39:56;10.18;;;8.88;;
13651;SDS011;6899;51.546;6.912;2022-10-17T06:42:23;12.65;;;9.57;;
13651;SDS011;6899;51.546;6.912;2022-10-17T06:44:51;10.68;;;9.25;;
13651;SDS011;6899;51.546;6.912;2022-10-17T06:47:18;12.93;;;8.88;;
13651;SDS011;6899;51.546;6.912;2022-10-17T06:49:48;9.43;;;8.45;;
13651;SDS011;6899;51.546;6.912;2022-10-17T06:52:16;11.57;;;9.00;;
13651;SDS011;6899;51.546;6.912;2022-10-17T06:54:43;11.85;;;9.45;;
13651;SDS011;6899;51.546;6.912;2022-10-17T06:57:10;10.60;;;9.40;;
13651;SDS011;6899;51.546;6.912;2022-10-17T06:59:37;13.40;;;9.05;;
13651;SDS011;6899;51.546;6.912;2022-10-17T07:02:05;11.93;;;8.52;;
13651;SDS011;6899;51.546;6.912;2022-10-17T07:04:32;9.32;;;8.20;;
13651;SDS011;6899;51.546;6.912;2022-10-17T07:06:59;11.50;;;8.70;;
13651;SDS011;6899;51.546;6.912;2022-10-17T07:09:27;14.57;;;8.30;;
13651;SDS011;6899;51.546;6.912;2022-10-17T07:11:54;10.25;;;7.95;;
13651;SDS011;6899;51.546;6.912;2022-10-17T07:14:20;9.70;;;7.00;;
13651;SDS011;6899;51.546;6.912;2022-10-17T07:16:47;7.82;;;6.90;;
13651;SDS011;6899;51.546;6.912;2022-10-17T07:19:15;10.85;;;6.90;;
13651;SDS011;6899;51.546;6.912;2022-10-17T07:21:42;10.02;;;7.97;;
13651;SDS011;6899;51.546;6.912;2022-10-17T07:24:09;10.90;;;7.43;;
13651;SDS011;6899;51.546;6.912;2022-10-17T07:26:36;10.95;;;8.00;;
13651;SDS011;6899;51.546;6.912;2022-10-17T07:29:03;10.02;;;7.70;;
13651;SDS011;6899;51.546;6.912;2022-10-17T07:31:31;7.22;;;6.40;;
13651;SDS011;6899;51.546;6.912;2022-10-17T07:33:59;10.65;;;7.18;;
13651;SDS011;6899;51.546;6.912;2022-10-17T07:36:27;11.70;;;6.93;;
13651;SDS011;6899;51.546;6.912;2022-10-17T07:38:54;7.20;;;6.47;;
13651;SDS011;6899;51.546;6.912;2022-10-17T07:41:21;7.45;;;5.78;;
13651;SDS011;6899;51.546;6.912;2022-10-17T07:43:48;7.30;;;5.88;;
13651;SDS011;6899;51.546;6.912;2022-10-17T07:46:15;7.32;;;5.60;;
13651;SDS011;6899;51.546;6.912;2022-10-17T07:48:41;7.95;;;5.35;;
13651;SDS011;6899;51.546;6.912;2022-10-17T07:51:08;5.50;;;5.00;;
13651;SDS011;6899;51.546;6.912;2022-10-17T07:53:37;6.68;;;4.93;;
13651;SDS011;6899;51.546;6.912;2022-10-17T07:56:05;5.93;;;4.85;;
13651;SDS011;6899;51.546;6.912;2022-10-17T07:58:33;6.65;;;5.38;;
13651;SDS011;6899;51.546;6.912;2022-10-17T08:01:00;7.97;;;4.85;;
13651;SDS011;6899;51.546;6.912;2022-10-17T08:03:27;9.40;;;5.20;;
13651;SDS011;6899;51.546;6.912;2022-10-17T08:05:57;10.13;;;5.38;;
13651;SDS011;6899;51.546;6.912;2022-10-17T08:08:28;6.32;;;5.15;;
13651;SDS011;6899;51.546;6.912;2022-10-17T08:11:00;6.95;;;4.93;;
13651;SDS011;6899;51.546;6.912;2022-10-17T08:13:28;7.90;;;4.88;;
13651;SDS011;6899;51.546;6.912;2022-10-17T08:15:57;5.07;;;4.50;;
13651;SDS011;6899;51.546;6.912;2022-10-17T08:18:25;7.22;;;4.57;;
13651;SDS011;6899;51.546;6.912;2022-10-17T08:20:52;5.57;;;4.57;;
13651;SDS011;6899;51.546;6.912;2022-10-17T08:23:19;6.13;;;4.18;;
13651;SDS011;6899;51.546;6.912;2022-10-17T08:25:45;6.68;;;4.47;;
13651;SDS011;6899;51.546;6.912;2022-10-17T08:28:14;8.85;;;4.60;;
13651;SDS011;6899;51.546;6.912;2022-10-17T08:30:40;6.22;;;3.90;;
13651;SDS011;6899;51.546;6.912;2022-10-17T08:33:07;6.15;;;4.47;;
13651;SDS011;6899;51.546;6.912;2022-10-17T08:35:34;4.95;;;3.58;;
13651;SDS011;6899;51.546;6.912;2022-10-17T08:38:01;10.05;;;4.30;;
13651;SDS011;6899;51.546;6.912;2022-10-17T08:40:29;6.05;;;4.03;;
13651;SDS011;6899;51.546;6.912;2022-10-17T08:43:13;8.43;;;3.70;;
13651;SDS011;6899;51.546;6.912;2022-10-17T08:45:50;7.93;;;4.10;;
13651;SDS011;6899;51.546;6.912;2022-10-17T08:48:20;5.65;;;3.80;;
13651;SDS011;6899;51.546;6.912;2022-10-17T08:50:51;8.18;;;4.38;;
13651;SDS011;6899;51.546;6.912;2022-10-17T08:53:21;6.47;;;4.00;;
13651;SDS011;6899;51.546;6.912;2022-10-17T08:55:54;5.88;;;4.00;;
13651;SDS011;6899;51.546;6.912;2022-10-17T08:58:23;8.05;;;3.95;;
13651;SDS011;6899;51.546;6.912;2022-10-17T09:01:01;7.93;;;4.28;;
13651;SDS011;6899;51.546;6.912;2022-10-17T09:03:37;4.82;;;3.92;;
13651;SDS011;6899;51.546;6.912;2022-10-17T09:06:18;7.00;;;4.18;;
13651;SDS011;6899;51.546;6.912;2022-10-17T09:08:56;4.93;;;3.78;;
13651;SDS011;6899;51.546;6.912;2022-10-17T09:11:41;10.63;;;3.85;;
13651;SDS011;6899;51.546;6.912;2022-10-17T09:14:23;7.05;;;3.78;;
13651;SDS011;6899;51.546;6.912;2022-10-17T09:17:05;5.47;;;3.47;;
13651;SDS011;6899;51.546;6.912;2022-10-17T09:19:39;7.55;;;3.92;;
13651;SDS011;6899;51.546;6.912;2022-10-17T09:22:16;4.15;;;3.63;;
13651;SDS011;6899;51.546;6.912;2022-10-17T09:24:47;7.90;;;3.95;;
13651;SDS011;6899;51.546;6.912;2022-10-17T09:27:21;3.95;;;3.53;;
13651;SDS011;6899;51.546;6.912;2022-10-17T09:29:51;6.00;;;3.38;;
13651;SDS011;6899;51.546;6.912;2022-10-17T09:32:24;6.90;;;3.70;;
13651;SDS011;6899;51.546;6.912;2022-10-17T09:34:51;7.68;;;3.90;;
13651;SDS011;6899;51.546;6.912;2022-10-17T09:37:18;10.02;;;3.92;;
13651;SDS011;6899;51.546;6.912;2022-10-17T09:39:51;5.05;;;3.53;;
13651;SDS011;6899;51.546;6.912;2022-10-17T09:42:18;8.20;;;4.30;;
13651;SDS011;6899;51.546;6.912;2022-10-17T09:44:49;5.50;;;3.80;;
13651;SDS011;6899;51.546;6.912;2022-10-17T09:47:22;8.10;;;3.80;;
13651;SDS011;6899;51.546;6.912;2022-10-17T09:49:53;5.88;;;3.45;;
13651;SDS011;6899;51.546;6.912;2022-10-17T09:52:21;5.53;;;4.20;;
13651;SDS011;6899;51.546;6.912;2022-10-17T09:54:53;6.07;;;3.47;;
13651;SDS011;6899;51.546;6.912;2022-10-17T09:57:24;7.50;;;3.83;;
13651;SDS011;6899;51.546;6.912;2022-10-17T09:59:56;7.22;;;3.65;;
13651;SDS011;6899;51.546;6.912;2022-10-17T10:02:25;8.63;;;4.35;;
13651;SDS011;6899;51.546;6.912;2022-10-17T10:04:57;7.15;;;4.50;;
13651;SDS011;6899;51.546;6.912;2022-10-17T10:07:28;4.00;;;3.60;;
13651;SDS011;6899;51.546;6.912;2022-10-17T10:09:56;6.10;;;3.95;;
13651;SDS011;6899;51.546;6.912;2022-10-17T10:12:25;5.88;;;4.25;;
13651;SDS011;6899;51.546;6.912;2022-10-17T10:14:53;10.00;;;4.45;;
13651;SDS011;6899;51.546;6.912;2022-10-17T10:17:26;7.53;;;3.75;;
13651;SDS011;6899;51.546;6.912;2022-10-17T10:23:08;6.60;;;4.53;;
13651;SDS011;6899;51.546;6.912;2022-10-17T10:25:47;4.60;;;4.18;;
13651;SDS011;6899;51.546;6.912;2022-10-17T10:28:17;6.60;;;4.15;;
13651;SDS011;6899;51.546;6.912;2022-10-17T10:30:48;9.52;;;5.00;;
13651;SDS011;6899;51.546;6.912;2022-10-17T10:33:18;7.13;;;4.28;;
13651;SDS011;6899;51.546;6.912;2022-10-17T10:35:51;5.93;;;3.90;;
13651;SDS011;6899;51.546;6.912;2022-10-17T10:38:22;7.13;;;4.30;;
13651;SDS011;6899;51.546;6.912;2022-10-17T10:40:50;5.40;;;4.10;;
13651;SDS011;6899;51.546;6.912;2022-10-17T10:43:20;7.28;;;4.13;;
13651;SDS011;6899;51.546;6.912;2022-10-17T10:46:00;4.93;;;3.90;;
13651;SDS011;6899;51.546;6.912;2022-10-17T10:48:29;7.68;;;4.55;;
13651;SDS011;6899;51.546;6.912;2022-10-17T10:50:59;9.32;;;4.20;;
13651;SDS011;6899;51.546;6.912;2022-10-17T10:53:36;7.00;;;4.28;;
13651;SDS011;6899;51.546;6.912;2022-10-17T10:56:12;7.60;;;4.00;;
13651;SDS011;6899;51.546;6.912;2022-10-17T10:58:46;5.72;;;3.80;;
13651;SDS011;6899;51.546;6.912;2022-10-17T11:01:21;9.30;;;3.78;;
13651;SDS011;6899;51.546;6.912;2022-10-17T11:04:04;6.72;;;4.05;;
13651;SDS011;6899;51.546;6.912;2022-10-17T11:06:40;7.28;;;4.13;;
13651;SDS011;6899;51.546;6.912;2022-10-17T11:09:12;8.93;;;6.65;;
13651;SDS011;6899;51.546;6.912;2022-10-17T11:11:47;8.13;;;4.55;;
13651;SDS011;6899;51.546;6.912;2022-10-17T11:14:23;6.43;;;4.57;;
13651;SDS011;6899;51.546;6.912;2022-10-17T11:17:04;9.30;;;4.78;;
13651;SDS011;6899;51.546;6.912;2022-10-17T11:19:38;7.38;;;4.88;;
13651;SDS011;6899;51.546;6.912;2022-10-17T11:22:11;6.80;;;4.65;;
13651;SDS011;6899;51.546;6.912;2022-10-17T11:24:42;7.60;;;5.28;;
13651;SDS011;6899;51.546;6.912;2022-10-17T11:27:21;9.02;;;4.88;;
13651;SDS011;6899;51.546;6.912;2022-10-17T11:29:49;9.43;;;5.72;;
13651;SDS011;6899;51.546;6.912;2022-10-17T11:32:18;9.57;;;6.25;;
13651;SDS011;6899;51.546;6.912;2022-10-17T11:34:50;8.23;;;5.30;;
13651;SDS011;6899;51.546;6.912;2022-10-17T11:37:23;6.45;;;5.57;;
13651;SDS011;6899;51.546;6.912;2022-10-17T11:39:55;10.13;;;5.97;;
13651;SDS011;6899;51.546;6.912;2022-10-17T11:42:26;11.00;;;6.00;;
13651;SDS011;6899;51.546;6.912;2022-10-17T11:44:57;8.32;;;5.97;;
13651;SDS011;6899;51.546;6.912;2022-10-17T11:47:33;11.95;;;6.50;;
13651;SDS011;6899;51.546;6.912;2022-10-17T11:50:11;11.52;;;5.93;;
13651;SDS011;6899;51.546;6.912;2022-10-17T11:52:47;5.63;;;5.07;;
13651;SDS011;6899;51.546;6.912;2022-10-17T11:55:18;9.52;;;7.53;;
13651;SDS011;6899;51.546;6.912;2022-10-17T11:57:53;7.60;;;5.72;;
13651;SDS011;6899;51.546;6.912;2022-10-17T12:00:29;9.98;;;5.25;;
13651;SDS011;6899;51.546;6.912;2022-10-17T12:03:06;8.40;;;5.88;;
13651;SDS011;6899;51.546;6.912;2022-10-17T12:05:46;7.32;;;5.75;;
13651;SDS011;6899;51.546;6.912;2022-10-17T12:08:19;8.65;;;5.75;;
13651;SDS011;6899;51.546;6.912;2022-10-17T12:10:52;10.68;;;4.95;;
13651;SDS011;6899;51.546;6.912;2022-10-17T12:13:45;7.95;;;5.03;;
13651;SDS011;6899;51.546;6.912;2022-10-17T12:16:35;7.05;;;4.90;;
13651;SDS011;6899;51.546;6.912;2022-10-17T12:19:29;7.50;;;5.07;;
13651;SDS011;6899;51.546;6.912;2022-10-17T12:24:53;7.40;;;5.70;;
13651;SDS011;6899;51.546;6.912;2022-10-17T12:30:18;6.47;;;5.22;;
13651;SDS011;6899;51.546;6.912;2022-10-17T12:32:58;13.32;;;5.65;;
13651;SDS011;6899;51.546;6.912;2022-10-17T12:35:29;8.95;;;5.32;;
13651;SDS011;6899;51.546;6.912;2022-10-17T12:40:53;7.75;;;4.80;;
13651;SDS011;6899;51.546;6.912;2022-10-17T12:43:36;10.00;;;5.22;;
13651;SDS011;6899;51.546;6.912;2022-10-17T12:46:09;7.93;;;5.47;;
13651;SDS011;6899;51.546;6.912;2022-10-17T12:52:06;9.50;;;5.38;;
13651;SDS011;6899;51.546;6.912;2022-10-17T12:54:51;7.18;;;4.97;;
13651;SDS011;6899;51.546;6.912;2022-10-17T12:57:24;7.72;;;5.20;;
13651;SDS011;6899;51.546;6.912;2022-10-17T12:59:56;9.13;;;5.07;;
13651;SDS011;6899;51.546;6.912;2022-10-17T13:02:24;7.72;;;4.65;;
13651;SDS011;6899;51.546;6.912;2022-10-17T13:04:56;7.68;;;5.20;;
13651;SDS011;6899;51.546;6.912;2022-10-17T13:07:31;7.75;;;5.05;;
13651;SDS011;6899;51.546;6.912;2022-10-17T13:09:59;8.70;;;5.18;;
13651;SDS011;6899;51.546;6.912;2022-10-17T13:12:29;9.50;;;5.00;;
13651;SDS011;6899;51.546;6.912;2022-10-17T13:14:59;7.18;;;5.32;;
13651;SDS011;6899;51.546;6.912;2022-10-17T13:17:31;11.68;;;9.00;;
13651;SDS011;6899;51.546;6.912;2022-10-17T13:19:59;9.15;;;5.30;;
13651;SDS011;6899;51.546;6.912;2022-10-17T13:22:27;10.02;;;5.93;;
13651;SDS011;6899;51.546;6.912;2022-10-17T13:25:06;6.65;;;5.95;;
13651;SDS011;6899;51.546;6.912;2022-10-17T13:27:34;10.93;;;5.38;;
13651;SDS011;6899;51.546;6.912;2022-10-17T13:30:20;9.38;;;5.75;;
13651;SDS011;6899;51.546;6.912;2022-10-17T13:32:49;10.02;;;5.63;;
13651;SDS011;6899;51.546;6.912;2022-10-17T13:35:21;8.40;;;5.65;;
13651;SDS011;6899;51.546;6.912;2022-10-17T13:37:49;7.07;;;5.65;;
13651;SDS011;6899;51.546;6.912;2022-10-17T13:40:20;11.32;;;5.93;;
13651;SDS011;6899;51.546;6.912;2022-10-17T13:42:49;11.02;;;5.82;;
13651;SDS011;6899;51.546;6.912;2022-10-17T13:45:19;9.98;;;5.78;;
13651;SDS011;6899;51.546;6.912;2022-10-17T13:47:49;11.15;;;6.60;;
13651;SDS011;6899;51.546;6.912;2022-10-17T13:50:18;11.50;;;5.97;;
13651;SDS011;6899;51.546;6.912;2022-10-17T13:53:04;8.50;;;5.72;;
13651;SDS011;6899;51.546;6.912;2022-10-17T13:55:33;8.35;;;4.90;;
13651;SDS011;6899;51.546;6.912;2022-10-17T13:58:13;9.38;;;5.50;;
13651;SDS011;6899;51.546;6.912;2022-10-17T14:00:42;11.80;;;5.68;;
13651;SDS011;6899;51.546;6.912;2022-10-17T14:03:10;10.45;;;5.47;;
13651;SDS011;6899;51.546;6.912;2022-10-17T14:08:38;8.15;;;4.68;;
13651;SDS011;6899;51.546;6.912;2022-10-17T14:11:14;7.28;;;4.57;;
13651;SDS011;6899;51.546;6.912;2022-10-17T14:13:47;7.68;;;4.88;;
13651;SDS011;6899;51.546;6.912;2022-10-17T14:16:15;9.50;;;4.55;;
13651;SDS011;6899;51.546;6.912;2022-10-17T14:18:44;9.82;;;4.97;;
13651;SDS011;6899;51.546;6.912;2022-10-17T14:21:17;9.93;;;4.85;;
13651;SDS011;6899;51.546;6.912;2022-10-17T14:23:46;6.63;;;4.53;;
13651;SDS011;6899;51.546;6.912;2022-10-17T14:26:15;7.38;;;4.40;;
13651;SDS011;6899;51.546;6.912;2022-10-17T14:28:46;7.07;;;4.18;;
13651;SDS011;6899;51.546;6.912;2022-10-17T14:31:21;6.57;;;4.60;;
13651;SDS011;6899;51.546;6.912;2022-10-17T14:33:51;8.40;;;4.30;;
13651;SDS011;6899;51.546;6.912;2022-10-17T14:36:19;5.88;;;4.65;;
13651;SDS011;6899;51.546;6.912;2022-10-17T14:38:55;7.30;;;4.13;;
13651;SDS011;6899;51.546;6.912;2022-10-17T14:41:24;7.55;;;4.10;;
13651;SDS011;6899;51.546;6.912;2022-10-17T14:43:53;9.93;;;4.65;;
13651;SDS011;6899;51.546;6.912;2022-10-17T14:46:21;10.60;;;3.92;;
13651;SDS011;6899;51.546;6.912;2022-10-17T14:48:52;5.72;;;4.07;;
13651;SDS011;6899;51.546;6.912;2022-10-17T14:51:21;7.38;;;4.20;;
13651;SDS011;6899;51.546;6.912;2022-10-17T14:54:01;7.63;;;4.60;;
13651;SDS011;6899;51.546;6.912;2022-10-17T14:56:37;5.60;;;3.72;;
13651;SDS011;6899;51.546;6.912;2022-10-17T14:59:05;6.53;;;4.22;;
13651;SDS011;6899;51.546;6.912;2022-10-17T15:01:34;6.45;;;4.13;;
13651;SDS011;6899;51.546;6.912;2022-10-17T15:04:01;8.25;;;4.75;;
13651;SDS011;6899;51.546;6.912;2022-10-17T15:06:29;9.40;;;4.78;;
13651;SDS011;6899;51.546;6.912;2022-10-17T15:08:58;7.38;;;4.78;;
13651;SDS011;6899;51.546;6.912;2022-10-17T15:11:25;5.85;;;4.57;;
13651;SDS011;6899;51.546;6.912;2022-10-17T15:13:54;8.02;;;4.78;;
13651;SDS011;6899;51.546;6.912;2022-10-17T15:16:22;7.10;;;5.20;;
13651;SDS011;6899;51.546;6.912;2022-10-17T15:18:50;11.38;;;5.10;;
13651;SDS011;6899;51.546;6.912;2022-10-17T15:21:18;10.70;;;5.45;;
13651;SDS011;6899;51.546;6.912;2022-10-17T15:23:49;9.75;;;5.72;;
13651;SDS011;6899;51.546;6.912;2022-10-17T15:26:17;9.63;;;6.20;;
13651;SDS011;6899;51.546;6.912;2022-10-17T15:28:45;13.60;;;6.03;;
13651;SDS011;6899;51.546;6.912;2022-10-17T15:31:15;7.82;;;5.35;;